Pagrindinis puslapis
METAR-TAF:

METAR-TAF

Oro uostai :

Berlynas Schönefeld, Vokietija

platuma: 52-23N, ilguma: 013-31E, Aukštis: 47 m

Dabartinis oras

Ataskaita buvo paskelbta 10 minutes, ne 09:20 UTC
Vėjas 10 kt iš Vakarų
Temperatūra 13°C
Drėgmė 72%
Slėgis 1028 hPa
Matomumas 10 km arba daugiau
Su prošvaistėmis ne aukštis 2000 ft

METAR: EDDB 200920Z 28010KT 9999 BKN020 13/08 Q1028 NOSIG

Laikas: 11:30 (09:30 UTC)

Prognozė

Ataskaita buvo paskelbta 4 valandos ir 30 minutes, ne 05:00 UTC
Prognozė galioja nuo 20 metu 06 UTC su 21 metu 06 UTC
Vėjas 7 kt iš Vakarų
Matomumas 10 km arba daugiau
Mažai debesys ne aukštis 4000 ft
Tapsmas
nuo 20 metu 16 UTC su 20 metu 18 UTC
Vėjas 4 kt iš Pietvakarių

TAF: EDDB 200500Z 2006/2106 28007KT 9999 FEW040 BECMG 2016/2018 22004KT

Orai ataskaitas ir orų prognozės (METAR, TAF).

turimą stotys yra geltonos ir raudonos taškus žemėlapyje.

Perkelti pele per norėdami pamatyti stoties vardą.

Tada spustelėkite, norėdami matyti oro stebėjimo ir prognozės.

Norėdami pakeisti žemėlapį: spustelėkite ant žalios mygtukų su juodo kryžiaus žemyn,; žalią mygtuką su brūkšneliu, jei norite nutolinti; arba žalių rodyklių gretimoms žemėlapius.


METAR-TAF: